Time;durP1;ratioP1;P1;durP2;ratioP2;P2;SDS_P1;SDS_P2;PMS_P1;PMS_P2;Temp;Humidity;BMP_temperature;BMP_pressure;BME280_temperature;BME280_humidity;BME280_pressure;Samples;Min_cycle;Max_cycle;Signal;HPM_P1;HPM_P2
2021/01/25 00:00:45;;;;;;;27.27;16.45;;;1.50;99.90;;;;;;5031785;28;20021;-44
2021/01/25 00:03:11;;;;;;;33.78;17.42;;;1.50;99.90;;;;;;5032078;28;20035;-45
2021/01/25 00:05:37;;;;;;;33.15;17.52;;;1.50;99.90;;;;;;5030468;28;20029;-44
2021/01/25 00:08:03;;;;;;;33.35;17.33;;;1.50;99.90;;;;;;5014025;28;20148;-45
2021/01/25 00:10:29;;;;;;;35.08;17.65;;;1.40;99.90;;;;;;5031276;28;20039;-46
2021/01/25 00:12:54;;;;;;;37.10;19.40;;;1.40;99.90;;;;;;5031596;28;20033;-44
2021/01/25 00:15:20;;;;;;;36.17;19.63;;;1.40;99.90;;;;;;5031047;28;20100;-44
2021/01/25 00:17:45;;;;;;;37.13;21.00;;;1.40;99.90;;;;;;5031941;28;20034;-44
2021/01/25 00:20:12;;;;;;;38.60;20.52;;;1.40;99.90;;;;;;5030605;28;20021;-45
2021/01/25 00:22:37;;;;;;;38.97;21.15;;;1.40;99.90;;;;;;5031688;28;20025;-44
2021/01/25 00:25:03;;;;;;;41.42;21.98;;;1.40;99.90;;;;;;5030801;28;20025;-44
2021/01/25 00:27:30;;;;;;;43.55;22.13;;;1.30;99.90;;;;;;5031267;28;20037;-47
2021/01/25 00:29:55;;;;;;;44.85;22.17;;;1.30;99.90;;;;;;5030805;28;20032;-45
2021/01/25 00:32:21;;;;;;;41.08;23.27;;;1.30;99.90;;;;;;5029753;28;20029;-44
2021/01/25 00:34:46;;;;;;;42.08;21.17;;;1.30;99.90;;;;;;5030723;28;20057;-43
2021/01/25 00:37:12;;;;;;;49.28;23.45;;;1.30;99.90;;;;;;5031075;28;20087;-44
2021/01/25 00:39:37;;;;;;;40.40;21.60;;;1.30;99.90;;;;;;5030093;28;20018;-43
2021/01/25 00:42:03;;;;;;;47.20;24.25;;;1.30;99.90;;;;;;5013352;28;20564;-43
2021/01/25 00:44:28;;;;;;;47.70;23.40;;;1.30;99.90;;;;;;5030309;28;20060;-45
2021/01/25 00:46:54;;;;;;;47.97;25.15;;;1.40;99.90;;;;;;5029368;28;20028;-45
2021/01/25 00:49:19;;;;;;;49.83;25.02;;;1.30;99.90;;;;;;5029612;28;20025;-45
2021/01/25 00:51:45;;;;;;;51.80;25.98;;;1.30;99.90;;;;;;5030865;28;20032;-46
2021/01/25 00:54:10;;;;;;;52.38;24.77;;;1.30;99.90;;;;;;5030312;28;20613;-45
2021/01/25 00:56:36;;;;;;;49.83;27.10;;;1.30;99.90;;;;;;5028802;28;20029;-45
2021/01/25 00:59:01;;;;;;;57.38;28.80;;;1.30;99.90;;;;;;5030667;28;20035;-48
2021/01/25 01:01:28;;;;;;;56.08;27.05;;;1.30;99.90;;;;;;5030490;28;20076;-45
2021/01/25 01:03:53;;;;;;;56.97;27.67;;;1.30;99.90;;;;;;5029749;28;20471;-44
2021/01/25 01:06:19;;;;;;;55.97;27.23;;;1.30;99.90;;;;;;5029329;28;20030;-44
2021/01/25 01:08:44;;;;;;;54.20;27.75;;;1.30;99.90;;;;;;5030586;28;20104;-45
2021/01/25 01:11:10;;;;;;;56.85;27.45;;;1.30;99.90;;;;;;5030411;28;20112;-44
2021/01/25 01:13:36;;;;;;;55.45;27.55;;;1.30;99.90;;;;;;5029260;28;20061;-44
2021/01/25 01:16:01;;;;;;;60.42;28.65;;;1.30;99.90;;;;;;5028530;28;20076;-44
2021/01/25 01:18:27;;;;;;;53.83;27.48;;;1.30;99.90;;;;;;5030494;28;20033;-44
2021/01/25 01:20:52;;;;;;;59.70;30.13;;;1.30;99.90;;;;;;5029406;28;20108;-44
2021/01/25 01:23:18;;;;;;;59.75;29.60;;;1.20;99.90;;;;;;5029082;28;20450;-45
2021/01/25 01:25:43;;;;;;;57.60;28.98;;;1.30;99.90;;;;;;5029715;28;20021;-44
2021/01/25 01:28:09;;;;;;;62.67;30.20;;;1.20;99.90;;;;;;5030211;28;20029;-44
2021/01/25 01:30:34;;;;;;;62.00;28.38;;;1.30;99.90;;;;;;5029090;28;20115;-47
2021/01/25 01:33:00;;;;;;;66.60;28.40;;;1.30;99.90;;;;;;5030153;28;20049;-44
2021/01/25 01:35:25;;;;;;;64.20;31.27;;;1.30;99.90;;;;;;5028392;28;20025;-44
2021/01/25 01:37:51;;;;;;;63.08;30.05;;;1.40;99.90;;;;;;5030098;28;20017;-45
2021/01/25 01:40:16;;;;;;;55.28;28.63;;;1.40;99.90;;;;;;5030052;28;20033;-47
2021/01/25 01:42:42;;;;;;;63.45;30.45;;;1.40;99.90;;;;;;5030223;28;20029;-45
2021/01/25 01:45:09;;;;;;;65.00;32.45;;;1.40;99.90;;;;;;5028916;28;20032;-43
2021/01/25 01:47:36;;;;;;;64.18;30.15;;;1.50;99.90;;;;;;5030145;28;20446;-45
2021/01/25 01:50:03;;;;;;;62.72;29.98;;;1.50;99.90;;;;;;5030158;28;20113;-48
2021/01/25 01:52:29;;;;;;;61.00;30.65;;;1.50;99.90;;;;;;5029714;28;20111;-45
2021/01/25 01:55:00;;;;;;;65.63;31.27;;;1.50;99.90;;;;;;5029214;28;20021;-45
2021/01/25 01:57:28;;;;;;;63.58;30.45;;;1.50;99.90;;;;;;5028638;28;20319;-45
2021/01/25 01:59:54;;;;;;;62.30;32.50;;;1.50;99.90;;;;;;5029509;28;20696;-45
2021/01/25 02:02:19;;;;;;;61.55;30.50;;;1.50;99.90;;;;;;5029741;28;20040;-45
2021/01/25 02:04:46;;;;;;;70.43;31.00;;;1.50;99.90;;;;;;5029051;28;20083;-45
2021/01/25 02:07:12;;;;;;;65.72;32.92;;;1.50;99.90;;;;;;5029522;28;20411;-45
2021/01/25 02:09:45;;;;;;;60.55;30.40;;;1.60;99.90;;;;;;5029707;28;20017;-46
2021/01/25 02:12:11;;;;;;;62.75;30.10;;;1.60;99.90;;;;;;5029264;28;20052;-46
2021/01/25 02:14:38;;;;;;;72.72;33.88;;;1.60;99.90;;;;;;5029100;28;20155;-46
2021/01/25 02:17:05;;;;;;;63.65;32.08;;;1.50;99.90;;;;;;5026985;28;20514;-44
2021/01/25 02:19:50;;;;;;;62.15;30.15;;;1.60;99.90;;;;;;5029398;28;20041;-45
2021/01/25 02:22:46;;;;;;;72.07;33.42;;;1.60;99.90;;;;;;5029446;28;20049;-44
2021/01/25 02:25:45;;;;;;;68.43;32.85;;;1.60;99.90;;;;;;5026223;28;20034;-44
2021/01/25 02:28:10;;;;;;;67.93;30.98;;;1.60;99.90;;;;;;5009374;28;20399;-45
2021/01/25 02:30:38;;;;;;;66.55;31.27;;;1.60;99.90;;;;;;5009411;28;20041;-45
2021/01/25 02:33:04;;;;;;;64.32;30.52;;;1.60;99.90;;;;;;5009198;28;20026;-48
2021/01/25 02:35:30;;;;;;;68.10;30.65;;;1.60;99.90;;;;;;5008713;28;20030;-44
2021/01/25 02:37:57;;;;;;;59.45;29.45;;;1.60;99.90;;;;;;5009418;28;20479;-44
2021/01/25 02:40:24;;;;;;;61.90;30.70;;;1.60;99.90;;;;;;5018962;28;20501;-46
2021/01/25 02:42:54;;;;;;;61.92;32.65;;;1.60;99.90;;;;;;5028623;28;20036;-43
2021/01/25 02:45:21;;;;;;;64.43;29.38;;;1.60;99.90;;;;;;5028450;28;20107;-43
2021/01/25 02:47:48;;;;;;;64.20;31.45;;;1.50;99.90;;;;;;5028946;28;20029;-43
2021/01/25 02:50:14;;;;;;;62.38;30.27;;;1.50;99.90;;;;;;5027480;28;20029;-46
2021/01/25 02:52:39;;;;;;;67.05;29.65;;;1.50;99.90;;;;;;5027474;28;20382;-45
2021/01/25 02:55:05;;;;;;;66.00;30.45;;;1.60;99.90;;;;;;5028080;28;20043;-45
2021/01/25 02:57:32;;;;;;;66.03;31.45;;;1.60;99.90;;;;;;5027917;28;20368;-46
2021/01/25 03:00:00;;;;;;;64.90;31.27;;;1.60;99.90;;;;;;5027133;28;20025;-45
2021/01/25 03:02:26;;;;;;;62.65;30.20;;;1.60;99.90;;;;;;5028788;28;20037;-44
2021/01/25 03:04:52;;;;;;;59.53;30.13;;;1.60;99.90;;;;;;5026691;28;20030;-45
2021/01/25 03:07:18;;;;;;;64.18;32.03;;;1.70;99.90;;;;;;5028732;28;20240;-45
2021/01/25 03:09:43;;;;;;;65.00;30.17;;;1.70;99.90;;;;;;5028655;28;20037;-45
2021/01/25 03:12:09;;;;;;;61.85;30.83;;;1.70;99.90;;;;;;5028093;28;20033;-46
2021/01/25 03:14:41;;;;;;;55.58;28.77;;;1.70;99.90;;;;;;5027875;28;20129;-45
2021/01/25 03:17:07;;;;;;;59.90;30.05;;;1.70;99.90;;;;;;5028373;28;20091;-44
2021/01/25 03:19:32;;;;;;;66.80;30.48;;;1.80;99.90;;;;;;5028515;28;20037;-45
2021/01/25 03:21:58;;;;;;;56.15;28.00;;;1.80;99.90;;;;;;5026359;28;20030;-46
2021/01/25 03:24:24;;;;;;;59.58;29.25;;;1.80;99.90;;;;;;5027206;28;20034;-44
2021/01/25 03:26:49;;;;;;;60.63;29.88;;;1.80;99.90;;;;;;5028440;28;20052;-45
2021/01/25 03:29:15;;;;;;;59.17;28.40;;;1.90;99.90;;;;;;5030712;28;20423;-44
2021/01/25 03:31:41;;;;;;;60.65;28.95;;;1.80;99.90;;;;;;5031725;28;20056;-44
2021/01/25 03:34:07;;;;;;;63.83;29.92;;;1.80;99.90;;;;;;5032629;28;20044;-44
2021/01/25 03:36:33;;;;;;;57.83;28.42;;;1.80;99.90;;;;;;5031710;28;20033;-44
2021/01/25 03:38:59;;;;;;;59.33;29.30;;;1.80;99.90;;;;;;5032325;28;20044;-45
2021/01/25 03:41:26;;;;;;;60.33;28.25;;;1.80;99.90;;;;;;5032032;28;20033;-44
2021/01/25 03:43:52;;;;;;;60.58;30.65;;;1.80;99.90;;;;;;5032093;28;20022;-44
2021/01/25 03:46:17;;;;;;;60.78;30.98;;;1.90;99.90;;;;;;5031549;28;20033;-44
2021/01/25 03:48:43;;;;;;;53.67;27.23;;;1.80;99.90;;;;;;5030766;28;20022;-44
2021/01/25 03:51:08;;;;;;;62.72;28.73;;;1.80;99.90;;;;;;5031912;28;20569;-45
2021/01/25 03:53:34;;;;;;;65.15;28.75;;;1.80;99.90;;;;;;5032129;28;20037;-45
2021/01/25 03:55:59;;;;;;;60.67;29.38;;;1.80;99.90;;;;;;5030727;28;20060;-46
2021/01/25 03:58:26;;;;;;;55.28;27.20;;;1.80;99.90;;;;;;5031408;28;20506;-45
2021/01/25 04:00:53;;;;;;;51.53;26.77;;;1.80;99.90;;;;;;5031248;28;20033;-45
2021/01/25 04:03:18;;;;;;;59.38;29.05;;;1.80;99.90;;;;;;5030107;28;20530;-44
2021/01/25 04:05:44;;;;;;;53.55;26.90;;;1.80;99.90;;;;;;5030974;28;20021;-46
2021/01/25 04:08:10;;;;;;;54.17;25.17;;;1.80;99.90;;;;;;5030862;28;20435;-45
2021/01/25 04:10:35;;;;;;;50.53;25.80;;;1.90;99.90;;;;;;5031512;28;20028;-45
2021/01/25 04:13:01;;;;;;;53.03;26.38;;;1.80;99.90;;;;;;5030853;28;20088;-44
2021/01/25 04:15:27;;;;;;;55.05;26.42;;;1.90;99.90;;;;;;5012636;28;20029;-44
2021/01/25 04:17:53;;;;;;;48.35;25.20;;;1.90;99.90;;;;;;5025446;28;20040;-44
2021/01/25 04:20:18;;;;;;;54.08;26.08;;;1.90;99.90;;;;;;5019914;28;20034;-44
2021/01/25 04:22:44;;;;;;;54.92;26.58;;;1.90;99.90;;;;;;5022083;28;20440;-44
2021/01/25 04:25:10;;;;;;;59.03;27.70;;;1.90;99.90;;;;;;5024800;28;20025;-45
2021/01/25 04:27:35;;;;;;;62.92;29.42;;;1.90;99.90;;;;;;5030348;28;20390;-44
2021/01/25 04:30:05;;;;;;;56.85;24.58;;;1.90;99.90;;;;;;5030544;28;20024;-45
2021/01/25 04:32:35;;;;;;;47.65;24.25;;;1.90;99.90;;;;;;5023792;28;20024;-46
2021/01/25 04:35:07;;;;;;;55.10;26.67;;;1.90;99.90;;;;;;5017137;28;20629;-48
2021/01/25 04:37:32;;;;;;;50.63;25.88;;;1.90;99.90;;;;;;5026513;28;20025;-45
2021/01/25 04:39:59;;;;;;;58.20;28.05;;;1.80;99.90;;;;;;5029428;28;20072;-44
2021/01/25 04:42:25;;;;;;;54.33;27.02;;;1.90;99.90;;;;;;5029871;28;20029;-46
2021/01/25 04:44:51;;;;;;;55.92;26.48;;;1.90;99.90;;;;;;5030067;28;20425;-45
2021/01/25 04:47:17;;;;;;;60.35;26.27;;;1.80;99.90;;;;;;5030605;28;20018;-48
2021/01/25 04:49:45;;;;;;;51.42;26.15;;;1.80;99.90;;;;;;5030659;28;20017;-44
2021/01/25 04:52:13;;;;;;;55.67;25.80;;;1.80;99.90;;;;;;5030509;28;20128;-43
2021/01/25 04:54:40;;;;;;;60.53;26.75;;;1.90;99.90;;;;;;5012043;28;20029;-46
2021/01/25 04:57:06;;;;;;;52.30;25.42;;;1.90;99.90;;;;;;5029543;28;20056;-44
2021/01/25 04:59:33;;;;;;;49.63;25.73;;;1.90;99.90;;;;;;5030340;28;20041;-45
2021/01/25 05:01:58;;;;;;;56.13;26.48;;;1.90;99.90;;;;;;5030330;28;20048;-47
2021/01/25 05:04:24;;;;;;;53.05;27.23;;;1.90;99.90;;;;;;5029858;28;20253;-44
2021/01/25 05:06:49;;;;;;;58.40;27.05;;;1.90;99.90;;;;;;5030354;28;20681;-47
2021/01/25 05:09:15;;;;;;;47.10;24.77;;;1.90;99.90;;;;;;5028966;28;20092;-44
2021/01/25 05:11:40;;;;;;;53.95;25.75;;;1.90;99.90;;;;;;5030441;28;20661;-44
2021/01/25 05:14:07;;;;;;;45.65;22.88;;;1.90;99.90;;;;;;5032002;28;20038;-46
2021/01/25 05:16:33;;;;;;;51.30;25.77;;;1.90;99.90;;;;;;5031598;28;20025;-44
2021/01/25 05:19:02;;;;;;;50.28;23.85;;;1.90;99.90;;;;;;5031958;28;20087;-45
2021/01/25 05:21:35;;;;;;;56.03;27.67;;;1.90;99.90;;;;;;5031808;28;20025;-44
2021/01/25 05:24:08;;;;;;;48.28;24.23;;;1.90;99.90;;;;;;5031745;28;20029;-47
2021/01/25 05:26:34;;;;;;;56.75;26.13;;;1.80;99.90;;;;;;5030556;28;20029;-45
2021/01/25 05:29:00;;;;;;;55.72;27.73;;;1.80;99.90;;;;;;5031831;28;20033;-45
2021/01/25 05:31:26;;;;;;;58.47;27.08;;;1.80;99.90;;;;;;5031869;28;20398;-48
2021/01/25 05:33:53;;;;;;;56.38;27.08;;;1.70;99.90;;;;;;5031412;28;20490;-45
2021/01/25 05:36:20;;;;;;;48.03;25.38;;;1.70;99.90;;;;;;5030286;28;20052;-46
2021/01/25 05:38:50;;;;;;;57.90;26.45;;;1.70;99.90;;;;;;5031350;28;20018;-45
2021/01/25 05:41:17;;;;;;;51.67;25.88;;;1.70;99.90;;;;;;5031157;28;20028;-46
2021/01/25 05:43:43;;;;;;;53.55;27.42;;;1.70;99.90;;;;;;5031336;28;20022;-45
2021/01/25 05:46:11;;;;;;;54.70;26.73;;;1.60;99.90;;;;;;5030655;28;20028;-46
2021/01/25 05:48:37;;;;;;;52.80;25.13;;;1.60;99.90;;;;;;5030031;28;20021;-46
2021/01/25 05:51:15;;;;;;;51.85;26.75;;;1.60;99.90;;;;;;5030218;28;20052;-45
2021/01/25 05:53:42;;;;;;;44.85;23.33;;;1.60;99.90;;;;;;5029811;28;20227;-47
2021/01/25 05:56:10;;;;;;;45.13;23.92;;;1.60;99.90;;;;;;5028622;28;20021;-46
2021/01/25 05:58:36;;;;;;;47.15;23.05;;;1.50;99.90;;;;;;5029761;28;20056;-48
2021/01/25 06:01:02;;;;;;;49.53;24.55;;;1.50;99.90;;;;;;5011797;28;20086;-46
2021/01/25 06:03:36;;;;;;;54.35;25.80;;;1.50;99.90;;;;;;5020584;28;20073;-50
2021/01/25 06:06:13;;;;;;;52.05;23.92;;;1.50;99.90;;;;;;5004917;28;20021;-47
2021/01/25 06:08:38;;;;;;;51.75;25.33;;;1.50;99.90;;;;;;5021776;28;20025;-47
2021/01/25 06:11:14;;;;;;;55.28;25.58;;;1.50;99.90;;;;;;5021664;28;20029;-46
2021/01/25 06:13:52;;;;;;;49.17;23.58;;;1.50;99.90;;;;;;5024364;28;20064;-45
2021/01/25 06:16:21;;;;;;;49.22;23.55;;;1.40;99.90;;;;;;5018836;28;20602;-48
2021/01/25 06:18:47;;;;;;;48.63;24.45;;;1.40;99.90;;;;;;5024721;28;20033;-47
2021/01/25 06:21:15;;;;;;;50.38;25.13;;;1.40;99.90;;;;;;5017643;28;20494;-49
2021/01/25 06:23:43;;;;;;;44.47;22.45;;;1.40;99.90;;;;;;5023949;28;20056;-47
2021/01/25 06:26:09;;;;;;;43.72;22.73;;;1.40;99.90;;;;;;5022676;28;20037;-47
2021/01/25 06:28:35;;;;;;;49.45;24.17;;;1.40;99.90;;;;;;5024628;28;20022;-48
2021/01/25 06:31:00;;;;;;;53.40;25.35;;;1.40;99.90;;;;;;5017725;28;20030;-47
2021/01/25 06:33:26;;;;;;;52.60;24.83;;;1.30;99.90;;;;;;5019411;28;20045;-46
2021/01/25 06:35:52;;;;;;;57.47;26.88;;;1.20;99.90;;;;;;5021358;28;20028;-46
2021/01/25 06:38:20;;;;;;;50.75;25.60;;;1.20;99.90;;;;;;5030092;28;20063;-49
2021/01/25 06:40:47;;;;;;;47.50;24.40;;;1.10;99.90;;;;;;5020504;28;20049;-47
2021/01/25 06:43:15;;;;;;;52.70;24.95;;;1.10;99.90;;;;;;5021447;28;20022;-46
2021/01/25 06:45:45;;;;;;;60.00;26.70;;;1.10;99.90;;;;;;5018433;28;20034;-47
2021/01/25 06:48:13;;;;;;;61.03;28.58;;;1.00;99.90;;;;;;5018733;28;20025;-45
2021/01/25 06:50:38;;;;;;;58.35;26.83;;;0.90;99.90;;;;;;5027763;28;20029;-46
2021/01/25 06:53:06;;;;;;;66.90;28.63;;;0.80;99.90;;;;;;5026456;28;20026;-47
2021/01/25 06:55:33;;;;;;;60.67;27.40;;;0.70;99.90;;;;;;5018927;28;20108;-49
2021/01/25 06:58:04;;;;;;;64.53;28.85;;;0.70;99.90;;;;;;5029132;28;20049;-45
2021/01/25 07:00:36;;;;;;;63.78;28.00;;;0.60;99.90;;;;;;5024003;28;20026;-48
2021/01/25 07:03:05;;;;;;;56.70;26.33;;;0.60;99.90;;;;;;5020061;28;20017;-47
2021/01/25 07:05:33;;;;;;;57.13;26.15;;;0.60;99.90;;;;;;5022518;28;20022;-47
2021/01/25 07:08:16;;;;;;;51.63;24.77;;;0.60;99.90;;;;;;4994279;28;20100;-47
2021/01/25 07:11:08;;;;;;;53.85;24.05;;;0.60;99.90;;;;;;5023945;28;20033;-46
2021/01/25 07:13:36;;;;;;;53.22;24.33;;;0.60;99.90;;;;;;5014474;28;20564;-47
2021/01/25 07:16:03;;;;;;;60.40;25.77;;;0.50;99.90;;;;;;4990420;28;20083;-46
2021/01/25 07:18:29;;;;;;;57.05;26.00;;;0.50;99.90;;;;;;5005644;28;20033;-44
2021/01/25 07:20:57;;;;;;;51.22;24.83;;;0.50;99.90;;;;;;4989061;28;20034;-46
2021/01/25 07:23:24;;;;;;;58.05;26.30;;;0.60;99.90;;;;;;4989223;28;20498;-49
2021/01/25 07:26:02;;;;;;;54.53;24.95;;;0.60;99.90;;;;;;4988369;28;20380;-46
2021/01/25 07:28:30;;;;;;;57.35;25.27;;;0.60;99.90;;;;;;5008003;28;20037;-47
2021/01/25 07:30:57;;;;;;;60.80;25.67;;;0.70;99.90;;;;;;5008727;28;20046;-48
2021/01/25 07:33:23;;;;;;;53.75;24.10;;;0.70;99.90;;;;;;5010143;28;20467;-49
2021/01/25 07:35:50;;;;;;;54.13;25.67;;;0.80;99.90;;;;;;5007818;28;20087;-49
2021/01/25 07:38:16;;;;;;;51.65;24.50;;;0.70;99.90;;;;;;5008480;28;20030;-45
2021/01/25 07:40:45;;;;;;;56.97;25.65;;;0.80;99.90;;;;;;5006520;28;20463;-50
2021/01/25 07:43:13;;;;;;;57.80;25.58;;;0.80;99.90;;;;;;5007437;28;20630;-47
2021/01/25 07:45:39;;;;;;;53.53;25.65;;;0.80;99.90;;;;;;5007753;28;20037;-46
2021/01/25 07:48:07;;;;;;;53.25;24.70;;;0.70;99.90;;;;;;5007873;28;20038;-46
2021/01/25 07:50:33;;;;;;;49.55;24.10;;;0.70;99.90;;;;;;4991061;28;20399;-46
2021/01/25 07:53:00;;;;;;;61.50;26.38;;;0.80;99.90;;;;;;4988635;28;20039;-46
2021/01/25 07:55:26;;;;;;;50.65;24.90;;;0.80;99.90;;;;;;5005407;28;20503;-46
2021/01/25 07:57:52;;;;;;;54.28;24.10;;;0.70;99.90;;;;;;4990322;28;20057;-46
2021/01/25 08:00:20;;;;;;;60.83;25.20;;;0.80;99.90;;;;;;4989614;28;20034;-46
2021/01/25 08:03:00;;;;;;;53.78;24.80;;;0.80;99.90;;;;;;4988726;28;20029;-47
2021/01/25 08:05:26;;;;;;;50.15;23.35;;;0.80;99.90;;;;;;4996920;28;20033;-46
2021/01/25 08:07:54;;;;;;;50.70;24.52;;;0.80;99.90;;;;;;4999994;28;20061;-45
2021/01/25 08:10:20;;;;;;;53.28;24.70;;;0.80;99.90;;;;;;4989712;28;20023;-46
2021/01/25 08:12:47;;;;;;;51.20;23.98;;;0.70;99.90;;;;;;4994258;28;20547;-48
2021/01/25 08:15:19;;;;;;;49.78;23.15;;;0.80;99.90;;;;;;5009822;28;20040;-47
2021/01/25 08:17:57;;;;;;;51.13;24.10;;;0.80;99.90;;;;;;5011712;28;20030;-46
2021/01/25 08:20:30;;;;;;;51.47;23.77;;;0.80;99.90;;;;;;5024786;28;20037;-45
2021/01/25 08:23:12;;;;;;;47.67;21.55;;;0.80;99.90;;;;;;5026289;28;20033;-48
2021/01/25 08:25:38;;;;;;;50.40;22.83;;;0.90;99.90;;;;;;5031027;28;20025;-49
2021/01/25 08:28:12;;;;;;;48.05;22.52;;;0.90;99.90;;;;;;5031618;28;20026;-49
2021/01/25 08:30:43;;;;;;;45.70;21.00;;;1.00;99.90;;;;;;5019349;28;20026;-48
2021/01/25 08:33:12;;;;;;;48.10;22.90;;;1.00;99.90;;;;;;4996690;28;20246;-47
2021/01/25 08:35:50;;;;;;;48.35;23.33;;;1.00;99.90;;;;;;5012066;28;20090;-47
2021/01/25 08:38:30;;;;;;;45.83;21.85;;;1.10;99.90;;;;;;5021847;28;20265;-49
2021/01/25 08:40:58;;;;;;;45.58;21.20;;;1.10;99.90;;;;;;5011475;28;20034;-46
2021/01/25 08:43:32;;;;;;;41.45;19.52;;;1.20;99.90;;;;;;5011552;28;20080;-47
2021/01/25 08:46:15;;;;;;;43.17;22.23;;;1.20;99.90;;;;;;5010733;28;20018;-47
2021/01/25 08:48:41;;;;;;;43.10;19.75;;;1.30;99.90;;;;;;5015978;28;20421;-45
2021/01/25 08:51:08;;;;;;;44.75;19.70;;;1.30;99.90;;;;;;5029634;28;20030;-46
2021/01/25 08:53:34;;;;;;;46.95;21.85;;;1.30;99.90;;;;;;5006622;28;20029;-46
2021/01/25 08:56:11;;;;;;;47.83;21.05;;;1.40;99.90;;;;;;5010949;28;20030;-47
2021/01/25 08:58:36;;;;;;;43.08;21.20;;;1.40;99.90;;;;;;5026509;28;20034;-47
2021/01/25 09:01:12;;;;;;;44.45;21.15;;;1.40;99.90;;;;;;5030569;28;20032;-48
2021/01/25 09:03:38;;;;;;;39.15;20.40;;;1.40;99.90;;;;;;5012988;28;20013;-46
2021/01/25 09:06:04;;;;;;;46.45;19.67;;;1.50;99.90;;;;;;5000005;28;20034;-45
2021/01/25 09:08:30;;;;;;;42.90;20.10;;;1.50;99.90;;;;;;5016302;28;20029;-46
2021/01/25 09:10:56;;;;;;;41.70;19.77;;;1.60;99.90;;;;;;5011582;28;20293;-47
2021/01/25 09:13:22;;;;;;;45.33;19.50;;;1.60;99.90;;;;;;5029454;28;20407;-48
2021/01/25 09:15:47;;;;;;;41.90;19.40;;;1.70;99.90;;;;;;5030175;28;20083;-45
2021/01/25 09:18:13;;;;;;;41.78;19.50;;;1.80;99.90;;;;;;5031588;28;20097;-46
2021/01/25 09:20:38;;;;;;;34.42;16.67;;;1.90;99.90;;;;;;5026887;28;20438;-46
2021/01/25 09:23:04;;;;;;;36.83;16.55;;;2.00;99.90;;;;;;5023516;28;20027;-47
2021/01/25 09:25:31;;;;;;;37.45;17.95;;;2.00;99.90;;;;;;5015028;28;20038;-48
2021/01/25 09:27:57;;;;;;;38.95;18.63;;;2.10;99.90;;;;;;5027984;28;20080;-46
2021/01/25 09:30:25;;;;;;;42.00;17.85;;;2.10;99.90;;;;;;5023520;28;20516;-45
2021/01/25 09:32:50;;;;;;;31.83;16.92;;;2.30;99.90;;;;;;5012973;28;20486;-48
2021/01/25 09:35:17;;;;;;;26.15;14.48;;;2.30;99.90;;;;;;5011307;28;20033;-47
2021/01/25 09:37:43;;;;;;;32.15;16.25;;;2.40;99.90;;;;;;5011877;28;20022;-47
2021/01/25 09:40:10;;;;;;;29.48;15.63;;;2.40;99.90;;;;;;5011704;28;20084;-48
2021/01/25 09:42:35;;;;;;;30.85;16.02;;;2.50;99.90;;;;;;5031520;28;20522;-49
2021/01/25 09:45:01;;;;;;;35.50;15.95;;;2.60;99.90;;;;;;5024524;28;20018;-48
2021/01/25 09:47:26;;;;;;;33.90;16.95;;;2.70;99.90;;;;;;5011768;28;20045;-49
2021/01/25 09:49:52;;;;;;;31.65;15.85;;;2.70;99.90;;;;;;5011570;28;20030;-45
2021/01/25 09:52:17;;;;;;;29.85;15.90;;;2.80;99.90;;;;;;5011587;28;20033;-46
2021/01/25 09:54:43;;;;;;;31.15;16.02;;;2.80;99.90;;;;;;4993341;28;20056;-44
2021/01/25 09:57:09;;;;;;;40.40;19.38;;;2.90;99.90;;;;;;5026398;28;20025;-45
2021/01/25 09:59:34;;;;;;;30.52;16.98;;;2.90;99.90;;;;;;5015297;28;20105;-46
2021/01/25 10:02:00;;;;;;;32.08;17.67;;;3.00;99.90;;;;;;5013323;28;20038;-47
2021/01/25 10:04:25;;;;;;;36.88;17.80;;;3.10;99.90;;;;;;4992796;28;20181;-48
2021/01/25 10:06:51;;;;;;;30.52;16.38;;;3.20;99.90;;;;;;5010702;28;20422;-47
2021/01/25 10:09:16;;;;;;;32.50;16.60;;;3.10;99.90;;;;;;5011984;28;20483;-47
2021/01/25 10:11:42;;;;;;;37.47;16.75;;;3.20;99.90;;;;;;5030579;28;20057;-47
2021/01/25 10:14:08;;;;;;;32.83;15.98;;;3.20;99.90;;;;;;5030695;28;20494;-46
2021/01/25 10:16:34;;;;;;;26.77;15.48;;;3.20;99.90;;;;;;5018864;28;20041;-49
2021/01/25 10:19:00;;;;;;;30.33;17.70;;;3.30;99.90;;;;;;5010925;28;20038;-46
2021/01/25 10:21:25;;;;;;;33.08;15.93;;;3.20;99.90;;;;;;5015460;28;20032;-45
2021/01/25 10:23:51;;;;;;;27.88;15.80;;;3.30;99.90;;;;;;5023954;28;20378;-47
2021/01/25 10:26:19;;;;;;;34.17;16.13;;;3.40;99.90;;;;;;5023999;28;20084;-46
2021/01/25 10:28:45;;;;;;;33.33;15.85;;;3.40;99.90;;;;;;5027955;28;20018;-46
2021/01/25 10:31:11;;;;;;;32.35;16.83;;;3.50;99.90;;;;;;5030532;28;20040;-47
2021/01/25 10:33:37;;;;;;;27.45;14.15;;;3.60;99.90;;;;;;5030431;28;20391;-49
2021/01/25 10:36:02;;;;;;;38.30;16.63;;;3.60;99.90;;;;;;5011964;28;20018;-46
2021/01/25 10:38:28;;;;;;;31.42;16.13;;;3.60;99.90;;;;;;5029108;28;20037;-50
2021/01/25 10:40:53;;;;;;;29.50;14.75;;;3.70;99.90;;;;;;5027723;28;20033;-48
2021/01/25 10:43:20;;;;;;;28.50;16.23;;;3.80;99.90;;;;;;5030346;28;20570;-47
2021/01/25 10:45:45;;;;;;;26.50;15.38;;;3.90;99.90;;;;;;5029714;28;20112;-46
2021/01/25 10:48:11;;;;;;;27.55;14.05;;;4.00;99.90;;;;;;5030177;28;20112;-47
2021/01/25 10:50:36;;;;;;;31.48;15.95;;;4.20;99.90;;;;;;5019117;28;20464;-46
2021/01/25 10:53:02;;;;;;;25.17;14.30;;;4.30;99.90;;;;;;5011610;28;20034;-47
2021/01/25 10:55:29;;;;;;;26.95;14.75;;;4.40;99.90;;;;;;5015559;28;20084;-46
2021/01/25 10:57:54;;;;;;;30.45;15.13;;;4.50;99.90;;;;;;5023709;28;20033;-48
2021/01/25 11:00:38;;;;;;;26.55;13.77;;;4.40;99.90;;;;;;5020239;28;20162;-47
2021/01/25 11:03:04;;;;;;;32.33;14.60;;;4.40;99.90;;;;;;5020660;28;20482;-46
2021/01/25 11:05:31;;;;;;;27.92;14.65;;;4.40;99.90;;;;;;5024537;28;20039;-46
2021/01/25 11:07:57;;;;;;;29.00;14.77;;;4.40;99.90;;;;;;5013564;28;20033;-47
2021/01/25 11:10:26;;;;;;;26.42;14.80;;;4.40;99.90;;;;;;5018425;28;20030;-47
2021/01/25 11:12:53;;;;;;;26.40;14.30;;;4.30;99.90;;;;;;5014625;28;20476;-47
2021/01/25 11:15:20;;;;;;;25.65;14.27;;;4.30;99.90;;;;;;4988553;28;20457;-47
2021/01/25 11:17:46;;;;;;;33.00;14.77;;;4.30;99.90;;;;;;4989002;28;20050;-48
2021/01/25 11:20:12;;;;;;;25.88;14.55;;;4.30;99.90;;;;;;4990485;28;20084;-48
2021/01/25 11:22:38;;;;;;;28.50;16.02;;;4.40;99.90;;;;;;4987860;28;20026;-48
2021/01/25 11:25:04;;;;;;;25.23;15.07;;;4.40;99.90;;;;;;4988245;28;20095;-49
2021/01/25 11:27:30;;;;;;;28.35;14.88;;;4.60;99.90;;;;;;4996791;28;20041;-45
2021/01/25 11:29:56;;;;;;;28.50;14.23;;;4.60;99.90;;;;;;5007025;28;20030;-47
2021/01/25 11:32:22;;;;;;;27.90;13.60;;;4.60;99.90;;;;;;5008497;28;20043;-47
2021/01/25 11:34:47;;;;;;;29.15;15.05;;;4.60;99.90;;;;;;5008108;28;20034;-46
2021/01/25 11:37:14;;;;;;;25.73;15.32;;;4.60;99.90;;;;;;5004850;28;20476;-47
2021/01/25 11:39:41;;;;;;;27.85;15.50;;;4.60;99.90;;;;;;4998328;28;20112;-46
2021/01/25 11:42:07;;;;;;;23.17;13.48;;;4.60;99.90;;;;;;5001459;28;20046;-47
2021/01/25 11:44:32;;;;;;;25.13;14.65;;;4.60;99.90;;;;;;4988323;28;20018;-48
2021/01/25 11:46:58;;;;;;;24.08;13.38;;;4.50;99.90;;;;;;5003279;28;20041;-47
2021/01/25 11:49:23;;;;;;;31.35;15.20;;;4.70;99.90;;;;;;5003009;28;20105;-48
2021/01/25 11:51:49;;;;;;;29.92;15.32;;;4.70;99.90;;;;;;5003300;28;20027;-48
2021/01/25 11:54:15;;;;;;;23.17;14.02;;;4.60;99.90;;;;;;5004696;28;20461;-47
2021/01/25 11:56:41;;;;;;;28.88;13.65;;;4.70;99.90;;;;;;5010446;28;20029;-46
2021/01/25 11:59:06;;;;;;;27.33;14.40;;;4.80;99.90;;;;;;5010717;28;20037;-46
2021/01/25 12:01:32;;;;;;;24.92;13.52;;;4.80;99.90;;;;;;5001612;28;20798;-46
2021/01/25 12:03:58;;;;;;;28.23;14.45;;;5.00;99.90;;;;;;4993767;28;20032;-45
2021/01/25 12:06:24;;;;;;;25.27;14.98;;;5.20;99.90;;;;;;4995369;28;20044;-47
2021/01/25 12:08:50;;;;;;;25.05;13.70;;;5.20;99.90;;;;;;5002776;28;20102;-49
2021/01/25 12:11:15;;;;;;;32.20;14.57;;;5.30;99.90;;;;;;5008981;28;20472;-46
2021/01/25 12:13:41;;;;;;;27.65;15.35;;;5.50;99.90;;;;;;5034473;28;20502;-47
2021/01/25 12:16:07;;;;;;;26.48;13.93;;;5.60;99.90;;;;;;5031783;28;20029;-49
2021/01/25 12:18:33;;;;;;;27.73;14.70;;;5.80;99.90;;;;;;5032885;28;20030;-47
2021/01/25 12:20:58;;;;;;;30.88;16.13;;;5.90;99.90;;;;;;5019658;28;20615;-46
2021/01/25 12:23:24;;;;;;;28.05;14.07;;;6.30;99.90;;;;;;5033119;28;20471;-46
2021/01/25 12:25:50;;;;;;;25.08;14.40;;;6.30;99.90;;;;;;5032440;28;20089;-47
2021/01/25 12:28:16;;;;;;;27.35;15.27;;;6.50;99.90;;;;;;5032835;28;20489;-46
2021/01/25 12:30:42;;;;;;;25.90;15.48;;;6.60;99.90;;;;;;5030700;28;20040;-47
2021/01/25 12:33:08;;;;;;;26.05;15.25;;;6.70;99.90;;;;;;5032547;28;20079;-48
2021/01/25 12:35:33;;;;;;;25.45;14.35;;;7.00;99.90;;;;;;5031920;28;20165;-47